Time;durP1;ratioP1;P1;durP2;ratioP2;P2;SDS_P1;SDS_P2;PMS_P1;PMS_P2;Temp;Humidity;BMP_temperature;BMP_pressure;BME280_temperature;BME280_humidity;BME280_pressure;Samples;Min_cycle;Max_cycle;Signal;HPM_P1;HPM_P2
2022/11/09 00:01:17;;;;;;;;;;;10.50;83.20;;;;;;4967554;28;20017;-81
2022/11/09 00:03:43;;;;;;;;;;;10.50;83.20;;;;;;4956503;28;19917;-81
2022/11/09 00:06:09;;;;;;;;;;;10.50;83.20;;;;;;4973552;28;19968;-82
2022/11/09 00:08:37;;;;;;;;;;;10.50;83.20;;;;;;4974069;28;20044;-82
2022/11/09 00:11:06;;;;;;;;;;;10.50;83.20;;;;;;4973571;28;19922;-81
2022/11/09 00:13:35;;;;;;;;;;;10.50;83.20;;;;;;4990344;28;19918;-80
2022/11/09 00:16:01;;;;;;;;;;;10.50;83.20;;;;;;4972924;28;20446;-81
2022/11/09 00:18:27;;;;;;;;;;;10.50;83.20;;;;;;4972511;28;20004;-81
2022/11/09 00:20:52;;;;;;;;;;;10.50;83.20;;;;;;4958218;28;20059;-81
2022/11/09 00:23:18;;;;;;;;;;;10.40;83.30;;;;;;4952140;28;20296;-82
2022/11/09 00:25:43;;;;;;;;;;;10.40;83.30;;;;;;4957928;28;19922;-81
2022/11/09 00:28:09;;;;;;;;;;;10.40;83.40;;;;;;4963033;28;20448;-81
2022/11/09 00:30:37;;;;;;;;;;;10.30;83.30;;;;;;4972776;28;19922;-81
2022/11/09 00:33:02;;;;;;;;;;;10.40;83.40;;;;;;4973186;28;20771;-82
2022/11/09 00:35:28;;;;;;;;;;;10.40;83.40;;;;;;4968753;28;19922;-82
2022/11/09 00:37:53;;;;;;;;;;;10.40;83.40;;;;;;4973967;28;19918;-82
2022/11/09 00:40:19;;;;;;;;;;;10.40;83.40;;;;;;4972653;28;19957;-82
2022/11/09 00:42:44;;;;;;;;;;;10.40;83.40;;;;;;4980710;28;19925;-81
2022/11/09 00:45:10;;;;;;;;;;;10.40;83.40;;;;;;4983555;28;19921;-82
2022/11/09 00:47:35;;;;;;;;;;;10.40;83.40;;;;;;4965658;28;20409;-83
2022/11/09 00:50:01;;;;;;;;;;;10.40;83.40;;;;;;4971722;28;19921;-82
2022/11/09 00:52:27;;;;;;;;;;;10.40;83.40;;;;;;4987799;28;19918;-82
2022/11/09 00:54:52;;;;;;;;;;;10.40;83.40;;;;;;4972027;28;19914;-82
2022/11/09 00:57:18;;;;;;;;;;;10.40;83.40;;;;;;4986230;28;19937;-82
2022/11/09 00:59:43;;;;;;;;;;;10.40;83.50;;;;;;4975399;28;19904;-81
2022/11/09 01:02:08;;;;;;;;;;;10.40;83.50;;;;;;4981130;28;20498;-82
2022/11/09 01:04:34;;;;;;;;;;;10.40;83.40;;;;;;4972142;28;20005;-81
2022/11/09 01:06:59;;;;;;;;;;;10.40;83.40;;;;;;4975602;28;19921;-81
2022/11/09 01:09:25;;;;;;;;;;;10.40;83.50;;;;;;4988966;28;20273;-81
2022/11/09 01:11:50;;;;;;;;;;;10.40;83.40;;;;;;4954056;28;19948;-82
2022/11/09 01:14:16;;;;;;;;;;;10.40;83.40;;;;;;4976129;28;19924;-81
2022/11/09 01:16:41;;;;;;;;;;;10.40;83.40;;;;;;4975177;28;20020;-81
2022/11/09 01:19:07;;;;;;;;;;;10.40;83.40;;;;;;4955805;28;19949;-81
2022/11/09 01:21:32;;;;;;;;;;;10.40;83.40;;;;;;4978498;28;19926;-82
2022/11/09 01:23:58;;;;;;;;;;;10.40;83.40;;;;;;4969774;28;19961;-82
2022/11/09 01:26:23;;;;;;;;;;;10.40;83.40;;;;;;4968729;28;20415;-82
2022/11/09 01:28:49;;;;;;;;;;;10.40;83.40;;;;;;4968152;28;19914;-81
2022/11/09 01:31:15;;;;;;;;;;;10.40;83.40;;;;;;4970669;28;19945;-81
2022/11/09 01:33:41;;;;;;;;;;;10.40;83.50;;;;;;4955828;28;19987;-81
2022/11/09 01:36:10;;;;;;;;;;;10.40;83.50;;;;;;4973538;28;19918;-82
2022/11/09 01:38:36;;;;;;;;;;;10.40;83.40;;;;;;4983314;28;20372;-82
2022/11/09 01:41:02;;;;;;;;;;;10.40;83.40;;;;;;4972856;28;19914;-82
2022/11/09 01:43:28;;;;;;;;;;;10.50;83.50;;;;;;4953358;28;19929;-82
2022/11/09 01:46:11;;;;;;;;;;;10.50;83.50;;;;;;4971395;28;19926;-82
2022/11/09 01:48:40;;;;;;;;;;;10.50;83.50;;;;;;4987993;28;19961;-82
2022/11/09 01:51:09;;;;;;;;;;;10.40;83.40;;;;;;4991755;28;20372;-82
2022/11/09 01:53:37;;;;;;;;;;;10.50;84.30;;;;;;4956762;28;19913;-81
2022/11/09 01:56:03;;;;;;;;;;;10.50;83.50;;;;;;4974188;28;20432;-81
2022/11/09 01:58:36;;;;;;;;;;;10.50;83.50;;;;;;4956597;28;20013;-82
2022/11/09 02:01:02;;;;;;;;;;;10.50;83.50;;;;;;4954684;28;19929;-83
2022/11/09 02:03:31;;;;;;;;;;;10.50;83.50;;;;;;4990164;28;19921;-82
2022/11/09 02:05:58;;;;;;;;;;;10.50;83.50;;;;;;4967860;28;19926;-81
2022/11/09 02:08:24;;;;;;;;;;;10.50;83.50;;;;;;4985825;28;19921;-83
2022/11/09 02:10:52;;;;;;;;;;;10.50;83.50;;;;;;4958450;28;19956;-81
2022/11/09 02:13:18;;;;;;;;;;;10.50;83.50;;;;;;4953423;28;19922;-84
2022/11/09 02:15:43;;;;;;;;;;;10.50;83.50;;;;;;4965464;28;19924;-82
2022/11/09 02:18:09;;;;;;;;;;;10.50;83.50;;;;;;4986884;28;19918;-81
2022/11/09 02:20:53;;;;;;;;;;;10.50;83.60;;;;;;4971727;28;19985;-82
2022/11/09 02:23:18;;;;;;;;;;;10.50;83.60;;;;;;4986314;28;20012;-82
2022/11/09 02:25:47;;;;;;;;;;;10.50;83.50;;;;;;4954641;28;20444;-84
2022/11/09 02:28:13;;;;;;;;;;;10.50;83.50;;;;;;4976052;28;19922;-85
2022/11/09 02:30:38;;;;;;;;;;;10.50;83.50;;;;;;4972445;28;19918;-82
2022/11/09 02:33:03;;;;;;;;;;;10.50;83.50;;;;;;4970434;28;19921;-81
2022/11/09 02:35:29;;;;;;;;;;;10.50;83.50;;;;;;4969365;28;19914;-82
2022/11/09 02:37:54;;;;;;;;;;;10.50;83.50;;;;;;4972662;28;19929;-84
2022/11/09 02:40:24;;;;;;;;;;;10.60;83.60;;;;;;4968871;28;19964;-81
2022/11/09 02:42:50;;;;;;;;;;;10.50;83.50;;;;;;4986740;28;19965;-82
2022/11/09 02:45:15;;;;;;;;;;;10.50;83.50;;;;;;4974888;28;19918;-84
2022/11/09 02:47:40;;;;;;;;;;;10.50;83.60;;;;;;4970180;28;19992;-81
2022/11/09 02:50:06;;;;;;;;;;;10.50;83.60;;;;;;4989380;28;19914;-82
2022/11/09 02:52:32;;;;;;;;;;;10.50;84.50;;;;;;4974374;28;20268;-83
2022/11/09 02:54:57;;;;;;;;;;;10.50;83.60;;;;;;4958550;28;19973;-85
2022/11/09 02:57:23;;;;;;;;;;;10.50;83.60;;;;;;4960536;28;20031;-82
2022/11/09 02:59:48;;;;;;;;;;;10.50;83.60;;;;;;4988094;28;19914;-82
2022/11/09 03:02:14;;;;;;;;;;;10.50;83.60;;;;;;4989515;28;20363;-84
2022/11/09 03:04:39;;;;;;;;;;;10.50;83.60;;;;;;4958161;28;19914;-83
2022/11/09 03:07:05;;;;;;;;;;;10.50;83.60;;;;;;4991817;28;19996;-82
2022/11/09 03:09:31;;;;;;;;;;;10.50;83.60;;;;;;4957038;28;20534;-81
2022/11/09 03:11:56;;;;;;;;;;;10.50;83.60;;;;;;4956095;28;19950;-81
2022/11/09 03:14:22;;;;;;;;;;;10.50;83.70;;;;;;4970753;28;19925;-81
2022/11/09 03:16:47;;;;;;;;;;;10.50;83.70;;;;;;4955495;28;20001;-82
2022/11/09 03:19:13;;;;;;;;;;;10.50;83.70;;;;;;4986128;28;19918;-82
2022/11/09 03:21:38;;;;;;;;;;;10.50;83.70;;;;;;4970377;28;19922;-82
2022/11/09 03:24:04;;;;;;;;;;;10.50;83.80;;;;;;4975423;28;19988;-82
2022/11/09 03:26:29;;;;;;;;;;;10.50;83.80;;;;;;4966319;28;19933;-82
2022/11/09 03:28:55;;;;;;;;;;;10.50;83.80;;;;;;4971631;28;19993;-81
2022/11/09 03:31:20;;;;;;;;;;;10.50;83.80;;;;;;4974715;28;19992;-82
2022/11/09 03:33:46;;;;;;;;;;;10.50;83.80;;;;;;4953398;28;19929;-82
2022/11/09 03:36:11;;;;;;;;;;;10.50;83.80;;;;;;4986274;28;19918;-82
2022/11/09 03:38:36;;;;;;;;;;;10.50;83.80;;;;;;4952005;28;20265;-81
2022/11/09 03:41:02;;;;;;;;;;;10.60;83.80;;;;;;4972059;28;19926;-82
2022/11/09 03:43:28;;;;;;;;;;;10.60;83.80;;;;;;4955530;28;19929;-81
2022/11/09 03:45:53;;;;;;;;;;;10.60;83.80;;;;;;4967724;28;19922;-79
2022/11/09 03:48:19;;;;;;;;;;;10.60;83.80;;;;;;4987673;28;20471;-81
2022/11/09 03:50:44;;;;;;;;;;;10.60;83.80;;;;;;4958099;28;19917;-80
2022/11/09 03:53:10;;;;;;;;;;;10.50;83.70;;;;;;4961299;28;19918;-82
2022/11/09 03:55:36;;;;;;;;;;;10.60;83.80;;;;;;4958558;28;19922;-82
2022/11/09 03:58:02;;;;;;;;;;;10.60;83.80;;;;;;4956120;28;19932;-80
2022/11/09 04:00:27;;;;;;;;;;;10.60;83.80;;;;;;4956142;28;20005;-80
2022/11/09 04:02:53;;;;;;;;;;;10.60;83.80;;;;;;4941770;28;20678;-82
2022/11/09 04:05:18;;;;;;;;;;;10.60;83.80;;;;;;4967652;28;19953;-80
2022/11/09 04:07:51;;;;;;;;;;;10.60;83.80;;;;;;4970637;28;19930;-84
2022/11/09 04:10:17;;;;;;;;;;;10.60;83.80;;;;;;4965768;28;20385;-81
2022/11/09 04:12:42;;;;;;;;;;;10.60;83.80;;;;;;4956406;28;19918;-81
2022/11/09 04:15:08;;;;;;;;;;;10.60;83.80;;;;;;4982347;28;19934;-81
2022/11/09 04:17:33;;;;;;;;;;;10.70;83.80;;;;;;4967860;28;20627;-82
2022/11/09 04:19:59;;;;;;;;;;;10.70;83.90;;;;;;4969869;28;19918;-81
2022/11/09 04:22:24;;;;;;;;;;;10.70;83.90;;;;;;4955917;28;19926;-80
2022/11/09 04:24:50;;;;;;;;;;;10.70;83.90;;;;;;4972314;28;19924;-82
2022/11/09 04:27:15;;;;;;;;;;;10.70;83.90;;;;;;4955453;28;19976;-81
2022/11/09 04:29:41;;;;;;;;;;;10.70;83.80;;;;;;4953517;28;19932;-80
2022/11/09 04:32:06;;;;;;;;;;;10.80;83.80;;;;;;4952069;28;19919;-80
2022/11/09 04:34:32;;;;;;;;;;;10.80;83.80;;;;;;4967550;28;19925;-81
2022/11/09 04:36:57;;;;;;;;;;;10.80;83.80;;;;;;4963583;28;20077;-80
2022/11/09 04:39:23;;;;;;;;;;;10.80;83.80;;;;;;4980919;28;19929;-80
2022/11/09 04:41:48;;;;;;;;;;;10.80;83.80;;;;;;4964028;28;20000;-82
2022/11/09 04:44:14;;;;;;;;;;;10.80;83.80;;;;;;4945642;28;19964;-81
2022/11/09 04:46:39;;;;;;;;;;;10.80;83.80;;;;;;4950459;28;19985;-80
2022/11/09 04:49:05;;;;;;;;;;;10.80;83.80;;;;;;4953619;28;19937;-80
2022/11/09 04:51:30;;;;;;;;;;;10.90;83.90;;;;;;4970334;28;19918;-81
2022/11/09 04:53:56;;;;;;;;;;;10.90;83.90;;;;;;4954787;28;19926;-80
2022/11/09 04:56:21;;;;;;;;;;;10.90;83.90;;;;;;4968640;28;20628;-81
2022/11/09 04:58:48;;;;;;;;;;;10.90;83.80;;;;;;4953038;28;19928;-82
2022/11/09 05:01:13;;;;;;;;;;;10.90;83.80;;;;;;4969854;28;19918;-80
2022/11/09 05:03:39;;;;;;;;;;;10.90;83.90;;;;;;4953339;28;19924;-79
2022/11/09 05:06:30;;;;;;;;;;;10.90;83.90;;;;;;4954400;28;19926;-80
2022/11/09 05:08:50;;;;;;;;;;;10.80;83.90;;;;;;4986038;28;19918;-81
2022/11/09 05:11:16;;;;;;;;;;;10.90;83.90;;;;;;4958062;28;19933;-81
2022/11/09 05:13:41;;;;;;;;;;;10.90;83.90;;;;;;4955161;28;19976;-82
2022/11/09 05:16:07;;;;;;;;;;;10.80;83.90;;;;;;4967674;28;19918;-83
2022/11/09 05:18:32;;;;;;;;;;;10.80;83.90;;;;;;4950946;28;19943;-81
2022/11/09 05:21:00;;;;;;;;;;;10.80;83.90;;;;;;4956588;28;19928;-82
2022/11/09 05:26:12;;;;;;;;;;;10.80;84.00;;;;;;4974015;28;19957;-81
2022/11/09 05:28:38;;;;;;;;;;;10.80;84.00;;;;;;4951963;28;19973;-82
2022/11/09 05:31:03;;;;;;;;;;;10.80;83.90;;;;;;4967228;28;19926;-83
2022/11/09 05:33:29;;;;;;;;;;;10.80;84.00;;;;;;4968247;28;20427;-82
2022/11/09 05:35:54;;;;;;;;;;;10.80;84.00;;;;;;4960858;28;19967;-80
2022/11/09 05:38:20;;;;;;;;;;;10.80;84.00;;;;;;4953363;28;19921;-81
2022/11/09 05:40:49;;;;;;;;;;;10.80;84.00;;;;;;4964625;28;20001;-82
2022/11/09 05:43:14;;;;;;;;;;;10.80;84.00;;;;;;4947070;28;20358;-83
2022/11/09 05:45:40;;;;;;;;;;;10.80;84.00;;;;;;4945924;28;19933;-82
2022/11/09 05:48:06;;;;;;;;;;;10.80;84.10;;;;;;4967571;28;19972;-82
2022/11/09 05:50:31;;;;;;;;;;;10.80;84.10;;;;;;4966786;28;19928;-80
2022/11/09 05:52:57;;;;;;;;;;;10.80;84.10;;;;;;4968466;28;20016;-81
2022/11/09 05:55:23;;;;;;;;;;;10.80;84.10;;;;;;4954779;28;19925;-83
2022/11/09 05:57:48;;;;;;;;;;;10.80;84.20;;;;;;4966891;28;19933;-84
2022/11/09 06:00:14;;;;;;;;;;;10.80;84.20;;;;;;4966112;28;19922;-82
2022/11/09 06:02:39;;;;;;;;;;;10.80;84.20;;;;;;4954215;28;19914;-83
2022/11/09 06:05:05;;;;;;;;;;;10.80;84.10;;;;;;4954042;28;19996;-82
2022/11/09 06:07:31;;;;;;;;;;;10.80;84.10;;;;;;4952761;28;19980;-84
2022/11/09 06:09:57;;;;;;;;;;;10.80;84.10;;;;;;4955390;28;19922;-84
2022/11/09 06:12:22;;;;;;;;;;;10.80;84.10;;;;;;4950847;28;19929;-82
2022/11/09 06:14:48;;;;;;;;;;;10.80;84.10;;;;;;4966170;28;19929;-81
2022/11/09 06:17:13;;;;;;;;;;;10.80;84.20;;;;;;4968910;28;19918;-83
2022/11/09 06:19:38;;;;;;;;;;;10.80;84.20;;;;;;4972230;28;20005;-83
2022/11/09 06:22:04;;;;;;;;;;;10.80;84.30;;;;;;4959357;28;19922;-83
2022/11/09 06:24:29;;;;;;;;;;;10.80;84.30;;;;;;4991522;28;19917;-82
2022/11/09 06:26:55;;;;;;;;;;;10.80;84.30;;;;;;4966815;28;19926;-83
2022/11/09 06:29:21;;;;;;;;;;;10.80;84.20;;;;;;4991145;28;19917;-82
2022/11/09 06:31:50;;;;;;;;;;;10.80;84.20;;;;;;4983512;28;19914;-85
2022/11/09 06:34:23;;;;;;;;;;;10.80;84.30;;;;;;4977340;28;19951;-85
2022/11/09 06:36:49;;;;;;;;;;;10.80;84.20;;;;;;4984149;28;19914;-82
2022/11/09 06:39:14;;;;;;;;;;;10.80;84.20;;;;;;4992370;28;19949;-83
2022/11/09 06:41:40;;;;;;;;;;;10.80;85.00;;;;;;4968576;28;19920;-83
2022/11/09 06:44:06;;;;;;;;;;;10.90;84.30;;;;;;4977101;28;19918;-83
2022/11/09 06:46:32;;;;;;;;;;;10.90;84.20;;;;;;4997058;28;20012;-83
2022/11/09 06:48:57;;;;;;;;;;;10.90;84.30;;;;;;4954675;28;20006;-83
2022/11/09 06:51:23;;;;;;;;;;;10.90;84.30;;;;;;4973742;28;20001;-83
2022/11/09 06:53:49;;;;;;;;;;;10.90;84.30;;;;;;4961275;28;19922;-83
2022/11/09 06:56:14;;;;;;;;;;;10.90;84.30;;;;;;4958441;28;20009;-83
2022/11/09 06:58:40;;;;;;;;;;;10.90;84.20;;;;;;4975560;28;20664;-82
2022/11/09 07:01:12;;;;;;;;;;;10.90;84.20;;;;;;4994308;28;19921;-81
2022/11/09 07:03:38;;;;;;;;;;;11.00;84.30;;;;;;4978783;28;19952;-82
2022/11/09 07:06:04;;;;;;;;;;;11.00;84.30;;;;;;4960345;28;19988;-81
2022/11/09 07:08:30;;;;;;;;;;;11.00;84.30;;;;;;4957307;28;19929;-82
2022/11/09 07:10:55;;;;;;;;;;;11.00;84.30;;;;;;4985963;28;19918;-82
2022/11/09 07:13:21;;;;;;;;;;;11.00;84.20;;;;;;4961616;28;19928;-83
2022/11/09 07:15:48;;;;;;;;;;;11.00;84.20;;;;;;4973668;28;19956;-81
2022/11/09 07:18:14;;;;;;;;;;;11.00;84.30;;;;;;4973738;28;19949;-82
2022/11/09 07:20:39;;;;;;;;;;;11.10;84.30;;;;;;4978408;28;20150;-83
2022/11/09 07:23:05;;;;;;;;;;;11.00;84.20;;;;;;4990316;28;19918;-83
2022/11/09 07:25:31;;;;;;;;;;;11.10;84.30;;;;;;4955276;28;20509;-81
2022/11/09 07:28:01;;;;;;;;;;;11.10;84.30;;;;;;4989725;28;20016;-81
2022/11/09 07:30:27;;;;;;;;;;;11.10;84.20;;;;;;4973476;28;20006;-82
2022/11/09 07:32:53;;;;;;;;;;;11.20;84.30;;;;;;4958320;28;20005;-82
2022/11/09 07:35:19;;;;;;;;;;;11.20;84.30;;;;;;4975462;28;19976;-82
2022/11/09 07:37:44;;;;;;;;;;;11.20;84.30;;;;;;4978563;28;19921;-82
2022/11/09 07:40:10;;;;;;;;;;;11.30;84.30;;;;;;4991871;28;20599;-83
2022/11/09 07:42:35;;;;;;;;;;;11.30;84.30;;;;;;4979553;28;19918;-82
2022/11/09 07:45:01;;;;;;;;;;;11.30;84.20;;;;;;4973067;28;19957;-81
2022/11/09 07:47:26;;;;;;;;;;;11.40;84.20;;;;;;4961167;28;19993;-82
2022/11/09 07:49:51;;;;;;;;;;;11.40;84.20;;;;;;4956457;28;19922;-83
2022/11/09 07:52:17;;;;;;;;;;;11.40;84.10;;;;;;4961723;28;20393;-81
2022/11/09 07:54:42;;;;;;;;;;;11.40;84.10;;;;;;4989003;28;19922;-82
2022/11/09 07:57:08;;;;;;;;;;;11.50;84.10;;;;;;4957814;28;19930;-82
2022/11/09 07:59:33;;;;;;;;;;;11.50;84.10;;;;;;4977125;28;19918;-82
2022/11/09 08:01:59;;;;;;;;;;;11.50;84.10;;;;;;4975138;28;19929;-83
2022/11/09 08:04:24;;;;;;;;;;;11.60;84.20;;;;;;4987986;28;19929;-83
2022/11/09 08:06:53;;;;;;;;;;;11.60;84.20;;;;;;4961648;28;19933;-81
2022/11/09 08:09:18;;;;;;;;;;;11.60;84.10;;;;;;4984491;28;20379;-83
2022/11/09 08:11:44;;;;;;;;;;;11.60;84.10;;;;;;4953253;28;19921;-81
2022/11/09 08:14:09;;;;;;;;;;;11.70;84.20;;;;;;4961667;28;20573;-82
2022/11/09 08:16:35;;;;;;;;;;;11.70;84.10;;;;;;4958010;28;19921;-83
2022/11/09 08:19:00;;;;;;;;;;;11.70;84.10;;;;;;4973106;28;22912;-81
2022/11/09 08:21:26;;;;;;;;;;;11.70;84.10;;;;;;4959461;28;20138;-81
2022/11/09 08:23:51;;;;;;;;;;;11.80;84.10;;;;;;4959951;28;19928;-82
2022/11/09 08:26:17;;;;;;;;;;;11.80;84.10;;;;;;4976312;28;20385;-83
2022/11/09 08:28:42;;;;;;;;;;;11.80;84.00;;;;;;4977411;28;20011;-82
2022/11/09 08:31:07;;;;;;;;;;;11.90;84.10;;;;;;4977515;28;20649;-83
2022/11/09 08:33:34;;;;;;;;;;;11.90;84.00;;;;;;4934092;28;19930;-83
2022/11/09 08:35:59;;;;;;;;;;;11.90;84.00;;;;;;4965066;28;19917;-82
2022/11/09 08:38:25;;;;;;;;;;;12.00;84.10;;;;;;4960989;28;20513;-83
2022/11/09 08:40:55;;;;;;;;;;;12.00;84.00;;;;;;4989251;28;19918;-83
2022/11/09 08:43:20;;;;;;;;;;;12.00;84.00;;;;;;4974914;28;20493;-83
2022/11/09 08:45:46;;;;;;;;;;;12.10;84.00;;;;;;4963460;28;20439;-83
2022/11/09 08:48:11;;;;;;;;;;;12.10;84.00;;;;;;4958525;28;19993;-82
2022/11/09 08:50:37;;;;;;;;;;;12.10;83.90;;;;;;4970291;28;19926;-82
2022/11/09 08:53:02;;;;;;;;;;;12.20;84.00;;;;;;4955640;28;20539;-83
2022/11/09 08:55:28;;;;;;;;;;;12.20;83.90;;;;;;4954233;28;19922;-82
2022/11/09 08:57:54;;;;;;;;;;;12.20;83.90;;;;;;4967775;28;19918;-83
2022/11/09 09:00:19;;;;;;;;;;;12.20;83.90;;;;;;4951384;28;19972;-82
2022/11/09 09:02:45;;;;;;;;;;;12.30;84.00;;;;;;4955529;28;19949;-84
2022/11/09 09:05:10;;;;;;;;;;;12.30;83.90;;;;;;4959206;28;19918;-82
2022/11/09 09:07:36;;;;;;;;;;;12.40;83.90;;;;;;4953516;28;19930;-82
2022/11/09 09:10:02;;;;;;;;;;;12.40;83.90;;;;;;4967573;28;20307;-82
2022/11/09 09:12:27;;;;;;;;;;;12.40;84.60;;;;;;4955102;28;19954;-82
2022/11/09 09:14:53;;;;;;;;;;;12.50;83.80;;;;;;4987161;28;19925;-82
2022/11/09 09:17:18;;;;;;;;;;;12.50;83.80;;;;;;4954048;28;19922;-83
2022/11/09 09:19:45;;;;;;;;;;;12.60;83.90;;;;;;4950290;28;21822;-82
2022/11/09 09:22:11;;;;;;;;;;;12.60;83.80;;;;;;4972165;28;20024;-85
2022/11/09 09:24:37;;;;;;;;;;;12.70;83.80;;;;;;4954311;28;19992;-83
2022/11/09 09:27:03;;;;;;;;;;;12.70;83.80;;;;;;4973477;28;19949;-81
2022/11/09 09:29:28;;;;;;;;;;;12.70;83.70;;;;;;4966842;28;19933;-84
2022/11/09 09:31:53;;;;;;;;;;;12.80;83.80;;;;;;4953803;28;19922;-84
2022/11/09 09:34:19;;;;;;;;;;;12.80;83.70;;;;;;4971697;28;19926;-83
2022/11/09 09:36:44;;;;;;;;;;;12.90;83.70;;;;;;4954916;28;19921;-84
2022/11/09 09:39:10;;;;;;;;;;;12.90;83.60;;;;;;4957048;28;20693;-84
2022/11/09 09:41:37;;;;;;;;;;;12.90;83.60;;;;;;4971071;28;19970;-83
2022/11/09 09:44:34;;;;;;;;;;;12.90;83.50;;;;;;4956396;28;19918;-82
2022/11/09 09:47:05;;;;;;;;;;;13.00;83.60;;;;;;4940624;28;19926;-84
2022/11/09 09:49:32;;;;;;;;;;;13.00;83.60;;;;;;4983628;28;19922;-83
2022/11/09 09:52:08;;;;;;;;;;;13.00;83.60;;;;;;4987482;28;19926;-82
2022/11/09 09:54:43;;;;;;;;;;;13.10;83.60;;;;;;4970143;28;19921;-83
2022/11/09 09:57:14;;;;;;;;;;;13.10;83.50;;;;;;4987306;28;20005;-82
2022/11/09 09:59:40;;;;;;;;;;;13.10;83.50;;;;;;4975279;28;20557;-82
2022/11/09 10:02:11;;;;;;;;;;;13.20;83.50;;;;;;4985055;28;19921;-84
2022/11/09 10:04:38;;;;;;;;;;;13.20;83.50;;;;;;4974842;28;19922;-83
2022/11/09 10:07:19;;;;;;;;;;;13.20;83.50;;;;;;4955245;28;20068;-82
2022/11/09 10:10:00;;;;;;;;;;;13.30;83.50;;;;;;4988363;28;20368;-82
2022/11/09 10:12:34;;;;;;;;;;;13.30;83.50;;;;;;4969898;28;20375;-82
2022/11/09 10:15:18;;;;;;;;;;;13.40;83.60;;;;;;4982654;28;19917;-83
2022/11/09 10:17:51;;;;;;;;;;;13.40;83.50;;;;;;4981352;28;19925;-84
2022/11/09 10:20:16;;;;;;;;;;;13.50;83.40;;;;;;4954404;28;19922;-84
2022/11/09 10:22:57;;;;;;;;;;;13.60;83.40;;;;;;4988186;28;19941;-83
2022/11/09 10:25:24;;;;;;;;;;;13.70;84.20;;;;;;4966324;28;19922;-84
2022/11/09 10:27:56;;;;;;;;;;;13.70;83.30;;;;;;4965962;28;19966;-84
2022/11/09 10:30:22;;;;;;;;;;;13.80;83.20;;;;;;4982671;28;19929;-82
2022/11/09 10:32:48;;;;;;;;;;;13.90;83.10;;;;;;4972855;28;19921;-84
2022/11/09 10:35:20;;;;;;;;;;;14.00;83.20;;;;;;4985445;28;19924;-82
2022/11/09 10:37:47;;;;;;;;;;;14.10;83.10;;;;;;4966373;28;19972;-83
2022/11/09 10:40:17;;;;;;;;;;;14.20;83.00;;;;;;4949101;28;19976;-83
2022/11/09 10:42:44;;;;;;;;;;;14.40;82.90;;;;;;4983886;28;20031;-84
2022/11/09 10:45:16;;;;;;;;;;;14.50;82.80;;;;;;4982497;28;20419;-84
2022/11/09 10:47:49;;;;;;;;;;;14.60;82.60;;;;;;4956585;28;19926;-84
2022/11/09 10:50:15;;;;;;;;;;;14.60;82.50;;;;;;4951868;28;19918;-83
2022/11/09 10:52:40;;;;;;;;;;;14.70;82.50;;;;;;4967238;28;19953;-84
2022/11/09 10:55:15;;;;;;;;;;;14.70;82.40;;;;;;4982567;28;19922;-84
2022/11/09 10:57:49;;;;;;;;;;;14.70;82.30;;;;;;4951170;28;20395;-84
2022/11/09 11:00:15;;;;;;;;;;;14.80;82.30;;;;;;4947028;28;19925;-84
2022/11/09 11:02:41;;;;;;;;;;;14.80;82.30;;;;;;4963755;28;20622;-84
2022/11/09 11:05:07;;;;;;;;;;;14.80;82.30;;;;;;4967208;28;19953;-83
2022/11/09 11:07:33;;;;;;;;;;;14.80;82.30;;;;;;4985002;28;20027;-83
2022/11/09 11:10:31;;;;;;;;;;;14.90;82.40;;;;;;4964934;28;19925;-83
2022/11/09 11:13:16;;;;;;;;;;;14.90;82.30;;;;;;4972061;28;19922;-83
2022/11/09 11:15:42;;;;;;;;;;;14.90;82.30;;;;;;4969601;28;20432;-83
2022/11/09 11:18:17;;;;;;;;;;;15.00;82.30;;;;;;4968326;28;19922;-85
2022/11/09 11:20:43;;;;;;;;;;;15.10;82.30;;;;;;4954343;28;19925;-85
2022/11/09 11:23:18;;;;;;;;;;;15.20;82.30;;;;;;4987100;28;20000;-85
2022/11/09 11:25:56;;;;;;;;;;;15.40;82.30;;;;;;4956736;28;19960;-85
2022/11/09 11:28:38;;;;;;;;;;;15.50;82.20;;;;;;4984118;28;19964;-85
2022/11/09 11:31:04;;;;;;;;;;;15.60;82.00;;;;;;4967922;28;20013;-84
2022/11/09 11:33:31;;;;;;;;;;;15.80;81.90;;;;;;4966489;28;19941;-84
2022/11/09 11:36:14;;;;;;;;;;;15.80;81.70;;;;;;4969443;28;19918;-84
2022/11/09 11:38:50;;;;;;;;;;;15.80;81.60;;;;;;4990827;28;20299;-84
2022/11/09 11:41:18;;;;;;;;;;;15.90;81.70;;;;;;4928660;28;20394;-84
2022/11/09 11:43:53;;;;;;;;;;;16.00;81.60;;;;;;4987645;28;19917;-84
2022/11/09 11:46:26;;;;;;;;;;;16.00;81.50;;;;;;4970930;28;19960;-84
2022/11/09 11:48:57;;;;;;;;;;;16.20;81.50;;;;;;4970557;28;19929;-85
2022/11/09 11:51:30;;;;;;;;;;;16.20;81.30;;;;;;4951823;28;20016;-84
2022/11/09 11:54:14;;;;;;;;;;;16.20;81.30;;;;;;4967995;28;19922;-83
2022/11/09 11:56:46;;;;;;;;;;;16.30;81.20;;;;;;4983557;28;19922;-84
2022/11/09 11:59:15;;;;;;;;;;;16.30;81.10;;;;;;4969812;28;19976;-84
2022/11/09 12:01:59;;;;;;;;;;;16.30;81.10;;;;;;4987783;28;20579;-85
2022/11/09 12:04:31;;;;;;;;;;;16.40;81.20;;;;;;4987252;28;19960;-85
2022/11/09 12:06:56;;;;;;;;;;;16.50;81.20;;;;;;4990491;28;19926;-84
2022/11/09 12:09:38;;;;;;;;;;;16.70;81.20;;;;;;4978265;28;19925;-84
2022/11/09 12:12:22;;;;;;;;;;;16.80;81.00;;;;;;4967156;28;19921;-85
2022/11/09 12:14:47;;;;;;;;;;;16.90;80.90;;;;;;4990163;28;20391;-86
2022/11/09 12:17:16;;;;;;;;;;;17.00;80.60;;;;;;4998909;28;19925;-84
2022/11/09 12:19:44;;;;;;;;;;;17.00;80.60;;;;;;4964754;28;19925;-85
2022/11/09 12:22:16;;;;;;;;;;;17.10;80.50;;;;;;4994505;28;19919;-84
2022/11/09 12:25:01;;;;;;;;;;;17.00;80.40;;;;;;4953458;28;20287;-84
2022/11/09 12:27:36;;;;;;;;;;;17.00;80.40;;;;;;4988513;28;19929;-85
2022/11/09 12:30:02;;;;;;;;;;;17.00;80.50;;;;;;4954840;28;22323;-83
2022/11/09 12:32:35;;;;;;;;;;;17.00;80.50;;;;;;4985111;28;19917;-84
2022/11/09 12:35:19;;;;;;;;;;;17.00;80.60;;;;;;4953451;28;19929;-83
2022/11/09 12:37:52;;;;;;;;;;;16.90;80.50;;;;;;4984872;28;19918;-83
2022/11/09 12:40:22;;;;;;;;;;;16.80;80.70;;;;;;4951242;28;20012;-84
2022/11/09 12:42:50;;;;;;;;;;;16.80;80.70;;;;;;4949976;28;19922;-83
2022/11/09 12:45:26;;;;;;;;;;;16.80;80.70;;;;;;4952875;28;19937;-83
2022/11/09 12:47:53;;;;;;;;;;;16.70;80.70;;;;;;4966154;28;19965;-84
2022/11/09 12:50:19;;;;;;;;;;;16.70;80.80;;;;;;4953100;28;19925;-83
2022/11/09 12:52:46;;;;;;;;;;;16.60;80.80;;;;;;4969475;28;19926;-84
2022/11/09 12:55:15;;;;;;;;;;;16.60;80.80;;;;;;4987012;28;20394;-84
2022/11/09 12:57:41;;;;;;;;;;;16.60;80.80;;;;;;4968193;28;20018;-84
2022/11/09 13:00:07;;;;;;;;;;;16.50;80.90;;;;;;4953696;28;19918;-84
2022/11/09 13:02:34;;;;;;;;;;;16.40;80.90;;;;;;4950984;28;19918;-84
2022/11/09 13:05:00;;;;;;;;;;;16.40;81.00;;;;;;4984040;28;19948;-83
2022/11/09 13:07:31;;;;;;;;;;;16.30;81.20;;;;;;4963983;28;19926;-84
2022/11/09 13:09:58;;;;;;;;;;;16.30;81.30;;;;;;4982917;28;19929;-84
2022/11/09 13:12:39;;;;;;;;;;;16.30;81.30;;;;;;4963614;28;19921;-84
2022/11/09 13:15:21;;;;;;;;;;;16.20;81.20;;;;;;4968175;28;19929;-83
2022/11/09 13:17:56;;;;;;;;;;;16.20;81.20;;;;;;4947478;28;19918;-84
2022/11/09 13:20:34;;;;;;;;;;;16.20;81.30;;;;;;4950535;28;19997;-81
2022/11/09 13:23:00;;;;;;;;;;;16.20;81.20;;;;;;4980327;28;19926;-83
2022/11/09 13:25:33;;;;;;;;;;;16.20;81.20;;;;;;4967738;28;19918;-84
2022/11/09 13:27:58;;;;;;;;;;;16.20;81.20;;;;;;4961991;28;19933;-84
2022/11/09 13:30:24;;;;;;;;;;;16.20;81.20;;;;;;4979698;28;19917;-83
2022/11/09 13:33:04;;;;;;;;;;;16.20;81.20;;;;;;4979249;28;20335;-84
2022/11/09 13:35:38;;;;;;;;;;;16.20;81.20;;;;;;4982719;28;20443;-82
2022/11/09 13:38:19;;;;;;;;;;;16.20;81.10;;;;;;4978744;28;19925;-82
2022/11/09 13:40:47;;;;;;;;;;;16.20;81.10;;;;;;4946976;28;19918;-83
2022/11/09 13:43:15;;;;;;;;;;;16.10;81.20;;;;;;4982190;28;20338;-83
2022/11/09 13:45:42;;;;;;;;;;;16.10;81.20;;;;;;4977302;28;19958;-82
2022/11/09 13:48:19;;;;;;;;;;;16.10;81.30;;;;;;4963299;28;19993;-83
2022/11/09 13:50:48;;;;;;;;;;;16.00;81.30;;;;;;4963057;28;20008;-82
2022/11/09 13:53:26;;;;;;;;;;;16.00;81.30;;;;;;4979787;28;19953;-83
2022/11/09 13:55:51;;;;;;;;;;;16.00;81.30;;;;;;4972366;28;19968;-83
2022/11/09 13:58:20;;;;;;;;;;;16.00;81.30;;;;;;4965623;28;19957;-83
2022/11/09 14:00:46;;;;;;;;;;;16.00;81.30;;;;;;4966234;28;19941;-83
2022/11/09 14:03:15;;;;;;;;;;;16.00;81.30;;;;;;4977683;28;20412;-82
2022/11/09 14:05:41;;;;;;;;;;;16.00;81.40;;;;;;4962670;28;19945;-83
2022/11/09 14:08:08;;;;;;;;;;;15.90;81.30;;;;;;4963191;28;20385;-82
2022/11/09 14:10:40;;;;;;;;;;;15.90;81.30;;;;;;4965855;28;19914;-83
2022/11/09 14:13:13;;;;;;;;;;;15.90;81.30;;;;;;4964952;28;19930;-82
2022/11/09 14:15:43;;;;;;;;;;;15.90;81.40;;;;;;4960698;28;20380;-83
2022/11/09 14:18:14;;;;;;;;;;;15.90;81.30;;;;;;4977561;28;20300;-83
2022/11/09 14:20:40;;;;;;;;;;;15.90;81.30;;;;;;4978799;28;19915;-83
2022/11/09 14:23:34;;;;;;;;;;;15.90;81.30;;;;;;4964370;28;19925;-83